createdAt,value
2018-06-18T00:00:29.694Z,22.30
2018-06-18T00:02:31.737Z,13.87
2018-06-18T00:04:33.781Z,13.60
2018-06-18T00:06:35.849Z,15.33
2018-06-18T00:08:37.917Z,15.67
2018-06-18T00:10:40.035Z,20.93
2018-06-18T00:12:42.365Z,18.43
2018-06-18T00:14:44.433Z,12.70
2018-06-18T00:16:46.476Z,11.80
2018-06-18T00:18:48.566Z,13.23
2018-06-18T00:20:50.646Z,12.93
2018-06-18T00:22:52.735Z,14.60
2018-06-18T00:24:54.768Z,11.57
2018-06-18T00:26:56.841Z,18.60
2018-06-18T00:28:58.899Z,15.93
2018-06-18T00:31:00.982Z,23.77
2018-06-18T00:33:03.073Z,18.03
2018-06-18T00:35:05.269Z,16.43
2018-06-18T00:37:07.660Z,17.20
2018-06-18T00:39:09.730Z,15.23
2018-06-18T00:41:11.844Z,18.93
2018-06-18T00:43:13.947Z,13.23
2018-06-18T00:45:16.018Z,12.27
2018-06-18T00:47:18.143Z,15.37
2018-06-18T00:49:20.210Z,12.77
2018-06-18T00:51:22.269Z,13.17
2018-06-18T00:53:24.343Z,17.00
2018-06-18T00:55:38.098Z,25.30
2018-06-18T00:57:40.200Z,13.00
2018-06-18T00:59:42.342Z,12.57
2018-06-18T01:01:44.457Z,14.53
2018-06-18T01:03:46.530Z,13.13
2018-06-18T01:05:48.605Z,12.70
2018-06-18T01:07:50.705Z,17.13
2018-06-18T01:09:52.760Z,18.00
2018-06-18T01:11:54.808Z,14.10
2018-06-18T01:13:56.865Z,11.33
2018-06-18T01:15:58.964Z,11.40
2018-06-18T01:18:01.076Z,12.13
2018-06-18T01:20:03.131Z,14.70
2018-06-18T01:22:05.216Z,18.53
2018-06-18T01:24:18.675Z,10.30
2018-06-18T01:26:20.735Z,13.80
2018-06-18T01:28:22.814Z,14.67
2018-06-18T01:30:24.869Z,15.93
2018-06-18T01:32:26.939Z,15.83
2018-06-18T01:34:29.058Z,17.87
2018-06-18T01:36:31.101Z,16.63
2018-06-18T01:38:33.174Z,21.67
2018-06-18T01:40:35.245Z,18.10
2018-06-18T01:42:37.312Z,15.07
2018-06-18T01:44:39.373Z,13.10
2018-06-18T01:46:41.448Z,17.20
2018-06-18T01:48:43.488Z,19.20
2018-06-18T01:50:45.576Z,21.70
2018-06-18T01:52:47.687Z,13.10
2018-06-18T01:54:49.774Z,12.83
2018-06-18T01:56:51.825Z,17.30
2018-06-18T01:58:53.928Z,14.73
2018-06-18T02:00:56.013Z,18.13
2018-06-18T02:02:58.094Z,15.63
2018-06-18T02:05:00.184Z,19.37
2018-06-18T02:07:02.264Z,17.83
2018-06-18T02:09:07.378Z,25.50
2018-06-18T02:11:09.428Z,23.93
2018-06-18T02:13:11.539Z,22.07
2018-06-18T02:15:14.223Z,21.70
2018-06-18T02:17:16.321Z,20.53
2018-06-18T02:19:18.390Z,20.90
2018-06-18T02:21:20.434Z,16.50
2018-06-18T02:23:22.518Z,18.80
2018-06-18T02:25:24.582Z,19.70
2018-06-18T02:27:32.434Z,16.23
2018-06-18T02:29:40.192Z,14.83
2018-06-18T02:31:48.139Z,21.67
2018-06-18T02:33:56.023Z,20.97
2018-06-18T02:36:03.885Z,18.13
2018-06-18T02:38:11.680Z,17.63
2018-06-18T02:40:19.590Z,18.83
2018-06-18T02:42:21.765Z,18.53
2018-06-18T02:44:23.934Z,17.87
2018-06-18T02:46:26.059Z,20.60
2018-06-18T02:48:28.225Z,19.10
2018-06-18T02:50:30.419Z,22.30
2018-06-18T02:52:32.549Z,19.20
2018-06-18T02:54:34.716Z,15.58
2018-06-18T02:56:47.606Z,18.07
2018-06-18T02:58:49.664Z,21.37
2018-06-18T03:00:51.722Z,18.43
2018-06-18T03:02:53.837Z,18.73
2018-06-18T03:04:55.890Z,32.10
2018-06-18T03:06:57.933Z,19.17
2018-06-18T03:09:00.018Z,17.97
2018-06-18T03:11:02.124Z,16.90
2018-06-18T03:13:04.205Z,16.60
2018-06-18T03:15:06.281Z,19.13
2018-06-18T03:17:08.341Z,17.63
2018-06-18T03:19:16.276Z,14.27
2018-06-18T03:21:23.963Z,20.37
2018-06-18T03:23:31.854Z,25.23
2018-06-18T03:25:39.724Z,15.83
2018-06-18T03:27:47.578Z,19.43
2018-06-18T03:29:49.624Z,18.93
2018-06-18T03:31:53.634Z,17.27
2018-06-18T03:33:55.700Z,14.50
2018-06-18T03:35:57.757Z,21.33
2018-06-18T03:38:00.872Z,21.43
2018-06-18T03:40:02.962Z,20.83
2018-06-18T03:42:05.565Z,10.93
2018-06-18T03:44:10.295Z,20.12
2018-06-18T03:46:12.480Z,13.10
2018-06-18T03:48:14.577Z,17.03
2018-06-18T03:50:16.684Z,18.87
2018-06-18T03:52:19.313Z,16.93
2018-06-18T03:54:21.448Z,26.77
2018-06-18T03:56:23.501Z,16.93
2018-06-18T03:58:25.597Z,17.97
2018-06-18T04:00:31.274Z,16.00
2018-06-18T04:03:11.704Z,16.67
2018-06-18T04:05:19.677Z,19.60
2018-06-18T04:07:28.262Z,19.37
2018-06-18T04:09:36.146Z,23.03
2018-06-18T04:11:43.865Z,14.00
2018-06-18T04:13:45.973Z,15.97
2018-06-18T04:15:48.029Z,15.70
2018-06-18T04:17:50.126Z,20.20
2018-06-18T04:19:52.179Z,24.30
2018-06-18T04:21:54.252Z,16.93
2018-06-18T04:23:56.308Z,16.30
2018-06-18T04:25:58.359Z,14.80
2018-06-18T04:28:00.402Z,16.60
2018-06-18T04:30:02.510Z,15.53
2018-06-18T04:32:04.641Z,14.17
2018-06-18T04:34:14.417Z,14.30
2018-06-18T04:36:16.473Z,15.40
2018-06-18T04:38:18.525Z,21.00
2018-06-18T04:40:20.560Z,17.53
2018-06-18T04:42:28.286Z,21.27
2018-06-18T04:44:36.138Z,14.50
2018-06-18T04:46:43.800Z,24.33
2018-06-18T04:48:51.597Z,18.83
2018-06-18T04:50:59.827Z,13.90
2018-06-18T04:53:01.919Z,19.80
2018-06-18T04:55:03.995Z,18.03
2018-06-18T04:57:06.040Z,25.10
2018-06-18T04:59:08.093Z,15.67
2018-06-18T05:01:21.289Z,26.33
2018-06-18T05:03:23.381Z,16.93
2018-06-18T05:05:25.441Z,14.57
2018-06-18T05:07:27.518Z,19.97
2018-06-18T05:09:41.377Z,14.77
2018-06-18T05:11:43.464Z,16.23
2018-06-18T05:13:45.552Z,23.27
2018-06-18T05:15:47.989Z,18.77
2018-06-18T05:17:50.061Z,23.93
2018-06-18T05:19:52.210Z,18.20
2018-06-18T05:21:54.273Z,19.43
2018-06-18T05:23:56.345Z,20.08
2018-06-18T05:25:59.650Z,21.10
2018-06-18T05:28:01.719Z,21.63
2018-06-18T05:30:10.286Z,21.80
2018-06-18T05:32:12.394Z,17.63
2018-06-18T05:34:16.870Z,19.77
2018-06-18T05:36:18.974Z,24.33
2018-06-18T05:38:28.225Z,16.83
2018-06-18T05:40:30.286Z,14.47
2018-06-18T05:42:32.398Z,18.20
2018-06-18T05:44:34.497Z,13.00
2018-06-18T05:46:36.582Z,17.33
2018-06-18T05:48:38.681Z,15.33
2018-06-18T05:50:40.858Z,24.03
2018-06-18T05:52:42.881Z,14.87
2018-06-18T05:54:44.987Z,15.40
2018-06-18T05:56:47.059Z,23.37
2018-06-18T05:58:49.141Z,17.23
2018-06-18T06:00:51.200Z,12.10
2018-06-18T06:02:53.259Z,16.23
2018-06-18T06:04:55.322Z,16.13
2018-06-18T06:06:57.413Z,20.67
2018-06-18T06:08:59.533Z,11.77
2018-06-18T06:11:01.604Z,16.30
2018-06-18T06:13:04.125Z,17.45
2018-06-18T06:15:06.285Z,12.70
2018-06-18T06:17:08.382Z,19.27
2018-06-18T06:19:10.474Z,12.17
2018-06-18T06:21:13.456Z,14.30
2018-06-18T06:23:15.530Z,19.07
2018-06-18T06:25:17.615Z,13.50
2018-06-18T06:27:19.702Z,14.30
2018-06-18T06:29:21.826Z,10.20
2018-06-18T06:31:23.884Z,19.23
2018-06-18T06:33:26.568Z,18.40
2018-06-18T06:35:31.652Z,17.07
2018-06-18T06:37:33.788Z,10.10
2018-06-18T06:39:35.814Z,13.10
2018-06-18T06:41:39.179Z,12.00
2018-06-18T06:43:41.313Z,15.80
2018-06-18T06:45:43.377Z,22.67
2018-06-18T06:47:45.485Z,22.97
2018-06-18T06:49:47.551Z,13.23
2018-06-18T06:51:49.641Z,13.43
2018-06-18T06:53:51.729Z,17.67
2018-06-18T06:55:53.900Z,15.30
2018-06-18T06:57:55.949Z,18.03
2018-06-18T06:59:58.067Z,19.30
2018-06-18T07:02:00.205Z,11.57
2018-06-18T07:04:02.312Z,16.47
2018-06-18T07:06:04.409Z,20.33
2018-06-18T07:08:06.537Z,20.33
2018-06-18T07:10:08.783Z,13.37
2018-06-18T07:12:10.857Z,17.33
2018-06-18T07:14:12.940Z,13.60
2018-06-18T07:16:15.048Z,13.93
2018-06-18T07:18:17.223Z,13.70
2018-06-18T07:20:19.319Z,16.70
2018-06-18T07:22:21.377Z,16.20
2018-06-18T07:24:23.484Z,11.27
2018-06-18T07:26:25.595Z,11.60
2018-06-18T07:28:27.672Z,14.50
2018-06-18T07:30:29.913Z,18.77
2018-06-18T07:32:31.836Z,16.03
2018-06-18T07:34:33.953Z,14.70
2018-06-18T07:36:36.006Z,10.87
2018-06-18T07:38:38.093Z,12.90
2018-06-18T07:40:40.189Z,17.50
2018-06-18T07:42:42.269Z,14.23
2018-06-18T07:44:44.423Z,22.67
2018-06-18T07:46:46.581Z,10.63
2018-06-18T07:48:48.682Z,14.17
2018-06-18T07:50:50.838Z,13.70
2018-06-18T07:52:52.915Z,16.52
2018-06-18T07:54:55.522Z,22.60
2018-06-18T07:56:57.654Z,13.83
2018-06-18T07:58:59.776Z,15.87
2018-06-18T08:01:01.904Z,17.33
2018-06-18T08:03:04.057Z,11.00
2018-06-18T08:05:06.126Z,19.80
2018-06-18T08:07:08.225Z,21.20
2018-06-18T08:09:12.384Z,14.53
2018-06-18T08:11:14.468Z,10.67
2018-06-18T08:13:16.577Z,14.73
2018-06-18T08:15:18.679Z,13.70
2018-06-18T08:17:20.748Z,25.23
2018-06-18T08:19:22.905Z,12.13
2018-06-18T08:21:24.965Z,15.80
2018-06-18T08:23:27.069Z,13.10
2018-06-18T08:25:29.138Z,11.83
2018-06-18T08:27:31.244Z,15.03
2018-06-18T08:29:33.312Z,14.37
2018-06-18T08:31:35.470Z,13.33
2018-06-18T08:33:37.613Z,20.63
2018-06-18T08:35:39.707Z,20.50
2018-06-18T08:37:41.794Z,13.97
2018-06-18T08:39:43.894Z,12.93
2018-06-18T08:41:45.989Z,14.03
2018-06-18T08:43:48.076Z,10.77
2018-06-18T08:45:50.170Z,16.60
2018-06-18T08:47:52.249Z,13.83
2018-06-18T08:50:00.180Z,10.27
2018-06-18T08:53:08.538Z,15.40
2018-06-18T08:55:16.413Z,12.83
2018-06-18T09:21:02.822Z,16.27
2018-06-18T09:23:08.035Z,12.33
2018-06-18T09:25:10.098Z,22.80
2018-06-18T09:27:13.367Z,11.00
2018-06-18T09:29:15.521Z,8.03
2018-06-18T09:31:17.578Z,16.80
2018-06-18T09:33:19.731Z,18.60
2018-06-18T09:35:21.793Z,13.50
2018-06-18T09:37:23.938Z,19.63
2018-06-18T09:39:25.982Z,20.37
2018-06-18T09:41:28.028Z,13.50
2018-06-18T09:43:30.054Z,16.63
2018-06-18T09:45:32.117Z,14.33
2018-06-18T09:47:34.157Z,15.93
2018-06-18T09:49:41.920Z,14.90
2018-06-18T09:51:49.793Z,12.37
2018-06-18T09:53:57.910Z,17.73
2018-06-18T09:56:05.822Z,15.27
2018-06-18T09:58:13.692Z,18.60
2018-06-18T10:00:31.916Z,17.97
2018-06-18T10:02:33.961Z,13.97
2018-06-18T10:04:36.040Z,14.33
2018-06-18T10:06:38.509Z,14.37
2018-06-18T10:08:40.614Z,19.40
2018-06-18T10:10:42.641Z,21.60
2018-06-18T10:12:44.636Z,20.37
2018-06-18T10:14:47.006Z,13.67
2018-06-18T10:16:49.045Z,12.33
2018-06-18T10:18:51.087Z,10.60
2018-06-18T10:20:53.130Z,16.57
2018-06-18T10:22:55.277Z,18.33
2018-06-18T10:24:57.321Z,19.33
2018-06-18T10:26:59.376Z,17.00
2018-06-18T10:29:01.469Z,15.50
2018-06-18T10:31:03.578Z,14.33
2018-06-18T10:33:11.451Z,15.30
2018-06-18T10:35:19.200Z,10.40
2018-06-18T10:37:27.125Z,17.33
2018-06-18T10:39:34.994Z,16.20
2018-06-18T10:41:42.876Z,18.80
2018-06-18T10:43:44.932Z,21.97
2018-06-18T10:45:47.069Z,14.03
2018-06-18T10:47:49.255Z,16.10
2018-06-18T10:49:51.317Z,10.93
2018-06-18T10:51:53.371Z,10.50
2018-06-18T10:53:55.497Z,9.77
2018-06-18T10:55:57.657Z,9.07
2018-06-18T10:57:59.756Z,14.73
2018-06-18T11:00:02.010Z,13.03
2018-06-18T11:02:04.072Z,15.90
2018-06-18T11:04:10.749Z,13.50
2018-06-18T11:06:18.532Z,15.87
2018-06-18T11:08:20.627Z,11.73
2018-06-18T11:10:25.292Z,11.70
2018-06-18T11:12:27.342Z,9.10
2018-06-18T11:14:29.469Z,16.25
2018-06-18T11:16:31.753Z,12.60
2018-06-18T11:18:39.334Z,10.87
2018-06-18T11:20:47.233Z,15.80
2018-06-18T11:22:55.228Z,8.20
2018-06-18T11:25:03.046Z,11.37
2018-06-18T11:27:05.229Z,15.20
2018-06-18T11:29:07.254Z,9.77
2018-06-18T11:31:09.324Z,12.53
2018-06-18T11:33:11.409Z,11.17
2018-06-18T11:35:13.489Z,7.33
2018-06-18T11:37:15.559Z,15.37
2018-06-18T11:39:17.601Z,12.97
2018-06-18T11:41:19.701Z,8.77
2018-06-18T11:43:21.833Z,10.97
2018-06-18T11:45:23.864Z,13.03
2018-06-18T11:47:25.900Z,10.57
2018-06-18T11:49:27.964Z,9.33
2018-06-18T11:51:30.070Z,8.70
2018-06-18T11:53:32.131Z,8.07
2018-06-18T11:55:34.797Z,9.47
2018-06-18T11:57:37.943Z,11.80
2018-06-18T12:00:44.462Z,9.23
2018-06-18T12:02:52.285Z,8.17
2018-06-18T12:05:00.188Z,8.80
2018-06-18T12:07:08.291Z,10.10
2018-06-18T12:09:16.210Z,11.53
2018-06-18T12:11:18.313Z,10.90
2018-06-18T12:13:20.435Z,14.00
2018-06-18T12:15:22.485Z,7.97
2018-06-18T12:17:26.597Z,17.90
2018-06-18T12:19:28.644Z,6.17
2018-06-18T12:21:30.817Z,12.50
2018-06-18T12:23:32.909Z,6.70
2018-06-18T12:25:35.029Z,5.70
2018-06-18T12:27:41.886Z,7.00
2018-06-18T12:29:43.988Z,8.73
2018-06-18T12:31:46.082Z,7.03
2018-06-18T12:33:48.147Z,10.10
2018-06-18T12:35:50.206Z,10.13
2018-06-18T12:37:52.397Z,9.30
2018-06-18T12:39:54.434Z,11.10
2018-06-18T12:42:02.440Z,5.50
2018-06-18T12:44:04.522Z,4.63
2018-06-18T12:46:12.446Z,7.03
2018-06-18T12:48:20.239Z,6.97
2018-06-18T12:50:28.177Z,9.10
2018-06-18T12:52:36.045Z,9.23
2018-06-18T12:54:43.880Z,8.73
2018-06-18T12:56:51.733Z,3.83
2018-06-18T12:58:53.801Z,7.07
2018-06-18T13:00:55.857Z,9.03
2018-06-18T13:03:05.697Z,5.87
2018-06-18T13:05:07.815Z,9.20
2018-06-18T13:07:09.908Z,9.70
2018-06-18T13:09:12.031Z,4.30
2018-06-18T13:11:14.128Z,7.47
2018-06-18T13:13:16.255Z,7.00
2018-06-18T13:15:18.333Z,5.67
2018-06-18T13:17:20.414Z,7.20
2018-06-18T13:19:22.661Z,7.57
2018-06-18T13:21:24.744Z,8.20
2018-06-18T13:23:26.871Z,8.40
2018-06-18T13:25:28.963Z,8.57
2018-06-18T13:27:36.904Z,8.00
2018-06-18T13:29:39.031Z,4.80
2018-06-18T13:31:41.201Z,9.83
2018-06-18T13:33:43.294Z,6.60
2018-06-18T13:35:45.366Z,5.50
2018-06-18T13:37:53.068Z,5.93
2018-06-18T13:40:01.023Z,4.77
2018-06-18T13:42:08.961Z,4.80
2018-06-18T13:44:16.892Z,3.20
2018-06-18T13:46:24.819Z,4.43
2018-06-18T13:48:32.550Z,7.37
2018-06-18T13:50:34.608Z,5.90
2018-06-18T13:52:36.791Z,8.33
2018-06-18T13:54:38.801Z,11.33
2018-06-18T13:56:40.862Z,6.13
2018-06-18T13:58:42.946Z,4.70
2018-06-18T14:00:45.137Z,5.30
2018-06-18T14:02:48.657Z,7.60
2018-06-18T14:04:50.841Z,4.60
2018-06-18T14:06:52.954Z,9.30
2018-06-18T14:08:55.045Z,8.37
2018-06-18T14:10:57.137Z,11.20
2018-06-18T14:12:59.293Z,6.27
2018-06-18T14:15:01.438Z,7.30
2018-06-18T14:17:03.605Z,6.13
2018-06-18T14:19:11.625Z,8.70
2018-06-18T14:21:13.746Z,5.67
2018-06-18T14:23:15.960Z,11.70
2018-06-18T14:25:18.199Z,4.80
2018-06-18T14:27:20.351Z,6.47
2018-06-18T14:29:28.357Z,4.73
2018-06-18T14:31:36.185Z,8.23
2018-06-18T14:33:44.011Z,7.50
2018-06-18T14:35:51.966Z,6.83
2018-06-18T14:37:59.924Z,8.20
2018-06-18T14:40:05.826Z,4.53
2018-06-18T14:42:09.185Z,8.83
2018-06-18T14:44:11.225Z,10.90
2018-06-18T14:46:13.340Z,3.87
2018-06-18T14:48:15.454Z,6.63
2018-06-18T14:50:25.587Z,9.77
2018-06-18T14:52:27.786Z,4.40
2018-06-18T14:54:30.382Z,6.93
2018-06-18T14:56:34.789Z,8.27
2018-06-18T14:58:36.842Z,9.43
2018-06-18T15:00:38.914Z,11.03
2018-06-18T15:02:40.957Z,6.93
2018-06-18T15:04:43.005Z,6.40
2018-06-18T15:06:45.629Z,9.00
2018-06-18T15:08:47.675Z,9.63
2018-06-18T15:10:52.610Z,7.43
2018-06-18T15:12:58.718Z,10.27
2018-06-18T15:15:06.683Z,9.17
2018-06-18T15:17:08.903Z,9.73
2018-06-18T15:19:11.149Z,10.77
2018-06-18T15:21:13.215Z,9.25
2018-06-18T15:23:15.835Z,12.60
2018-06-18T15:25:17.994Z,8.07
2018-06-18T15:27:20.033Z,7.37
2018-06-18T15:29:22.156Z,6.60
2018-06-18T15:31:24.381Z,8.83
2018-06-18T15:33:26.728Z,8.50
2018-06-18T15:35:28.985Z,10.50
2018-06-18T15:37:31.136Z,8.83
2018-06-18T15:39:33.617Z,10.53
2018-06-18T15:41:35.783Z,10.60
2018-06-18T15:43:38.069Z,15.70
2018-06-18T15:45:40.216Z,12.87
2018-06-18T15:47:43.914Z,13.90
2018-06-18T15:49:46.035Z,9.03
2018-06-18T15:51:49.637Z,15.80
2018-06-18T15:53:54.694Z,10.13
2018-06-18T15:55:57.085Z,15.43
2018-06-18T15:57:59.319Z,10.50
2018-06-18T16:00:01.430Z,9.23
2018-06-18T16:02:03.574Z,8.30
2018-06-18T16:04:05.783Z,9.93
2018-06-18T16:06:08.691Z,13.30
2018-06-18T16:08:10.822Z,12.63
2018-06-18T16:10:12.966Z,13.47
2018-06-18T16:12:15.158Z,10.37
2018-06-18T16:14:17.393Z,15.13
2018-06-18T16:16:19.559Z,14.93
2018-06-18T16:18:21.793Z,11.83
2018-06-18T16:20:23.978Z,8.23
2018-06-18T16:22:26.144Z,14.47
2018-06-18T16:24:28.302Z,18.27
2018-06-18T16:26:31.114Z,9.70
2018-06-18T16:28:33.323Z,9.03
2018-06-18T16:30:35.686Z,10.83
2018-06-18T16:32:37.895Z,9.70
2018-06-18T16:34:40.058Z,10.60
2018-06-18T16:36:42.273Z,14.00
2018-06-18T16:38:44.403Z,11.50
2018-06-18T16:40:46.501Z,12.20
2018-06-18T16:42:48.669Z,16.23
2018-06-18T16:44:50.798Z,22.80
2018-06-18T16:46:52.914Z,13.27
2018-06-18T16:48:55.051Z,20.53
2018-06-18T16:50:57.223Z,18.17
2018-06-18T16:52:59.354Z,21.20
2018-06-18T16:55:01.446Z,20.00
2018-06-18T16:57:03.534Z,18.07
2018-06-18T16:59:05.621Z,19.07
2018-06-18T17:01:07.678Z,22.17
2018-06-18T17:03:09.753Z,17.20
2018-06-18T17:05:11.805Z,23.03
2018-06-18T17:07:13.868Z,18.03
2018-06-18T17:09:15.981Z,20.17
2018-06-18T17:11:18.061Z,20.50
2018-06-18T17:13:20.121Z,19.40
2018-06-18T17:15:22.161Z,17.80
2018-06-18T17:17:24.242Z,19.17
2018-06-18T17:19:26.301Z,19.73
2018-06-18T17:21:28.409Z,18.00
2018-06-18T17:23:30.539Z,22.20
2018-06-18T17:25:32.559Z,20.67
2018-06-18T17:27:34.742Z,17.07
2018-06-18T17:29:43.931Z,16.23
2018-06-18T17:31:47.522Z,14.63
2018-06-18T17:33:49.665Z,18.47
2018-06-18T17:35:51.855Z,19.10
2018-06-18T17:37:54.034Z,17.67
2018-06-18T17:39:56.061Z,20.43
2018-06-18T17:41:58.187Z,27.87
2018-06-18T17:44:00.251Z,16.53
2018-06-18T17:46:02.321Z,20.03
2018-06-18T17:48:04.407Z,18.73
2018-06-18T17:50:06.449Z,19.93
2018-06-18T17:52:08.506Z,12.50
2018-06-18T17:54:10.587Z,15.70
2018-06-18T17:56:12.679Z,14.37
2018-06-18T17:58:14.781Z,15.53
2018-06-18T18:00:16.842Z,16.00
2018-06-18T18:02:18.937Z,15.57
2018-06-18T18:04:21.026Z,16.23
2018-06-18T18:06:23.091Z,16.40
2018-06-18T18:08:25.148Z,15.43
2018-06-18T18:10:27.227Z,17.73
2018-06-18T18:12:29.254Z,16.97
2018-06-18T18:14:31.419Z,18.17
2018-06-18T18:16:33.488Z,14.13
2018-06-18T18:18:35.546Z,12.33
2018-06-18T18:20:37.624Z,10.87
2018-06-18T18:22:39.805Z,18.00
2018-06-18T18:24:41.857Z,15.77
2018-06-18T18:26:43.919Z,11.70
2018-06-18T18:28:46.053Z,15.20
2018-06-18T18:30:49.043Z,14.00
2018-06-18T18:32:51.249Z,10.63
2018-06-18T18:34:53.404Z,16.60
2018-06-18T18:36:55.503Z,20.17
2018-06-18T18:38:57.595Z,12.83
2018-06-18T18:40:59.661Z,9.57
2018-06-18T18:43:02.774Z,13.70
2018-06-18T18:47:38.023Z,12.40
2018-06-18T18:49:40.093Z,9.70
2018-06-18T18:51:42.192Z,12.13
2018-06-18T18:53:44.323Z,13.40
2018-06-18T18:55:59.508Z,15.77
2018-06-18T18:58:14.690Z,13.03
2018-06-18T19:00:16.879Z,10.90
2018-06-18T19:02:18.975Z,11.30
2018-06-18T19:04:23.557Z,10.97
2018-06-18T19:06:25.621Z,12.33
2018-06-18T19:08:30.006Z,15.50
2018-06-18T19:10:34.263Z,9.53
2018-06-18T19:12:36.344Z,9.80
2018-06-18T19:14:38.553Z,10.50
2018-06-18T19:16:40.790Z,9.50
2018-06-18T19:18:47.697Z,10.27
2018-06-18T19:20:53.380Z,11.60
2018-06-18T19:22:55.498Z,9.13
2018-06-18T19:24:57.550Z,16.30
2018-06-18T19:26:59.971Z,8.60
2018-06-18T19:29:02.028Z,10.93
2018-06-18T19:31:07.882Z,11.27
2018-06-18T19:33:21.446Z,6.90
2018-06-18T19:35:23.510Z,8.77
2018-06-18T19:37:25.589Z,8.53
2018-06-18T19:39:32.191Z,10.13
2018-06-18T19:41:34.292Z,9.57
2018-06-18T19:43:37.874Z,9.63
2018-06-18T19:45:43.145Z,11.07
2018-06-18T19:47:49.403Z,8.53
2018-06-18T19:49:51.731Z,8.87
2018-06-18T19:52:12.451Z,17.83
2018-06-18T19:54:18.155Z,11.27
2018-06-18T19:56:20.269Z,8.40
2018-06-18T19:58:23.782Z,9.20
2018-06-18T20:00:30.529Z,8.00
2018-06-18T20:02:32.598Z,20.10
2018-06-18T20:04:34.762Z,10.40
2018-06-18T20:06:36.826Z,9.30
2018-06-18T20:08:38.882Z,7.13
2018-06-18T20:10:40.990Z,8.20
2018-06-18T20:12:43.028Z,8.83
2018-06-18T20:14:45.089Z,10.93
2018-06-18T20:16:47.155Z,20.10
2018-06-18T20:18:49.226Z,20.33
2018-06-18T20:20:51.310Z,10.53
2018-06-18T20:22:53.382Z,13.70
2018-06-18T20:24:55.486Z,7.80
2018-06-18T20:26:57.534Z,7.03
2018-06-18T20:28:59.633Z,9.60
2018-06-18T20:31:01.734Z,10.80
2018-06-18T20:33:04.706Z,12.80
2018-06-18T20:35:12.098Z,13.57
2018-06-18T20:37:14.185Z,9.60
2018-06-18T20:39:16.327Z,10.20
2018-06-18T20:41:18.486Z,8.73
2018-06-18T20:43:21.966Z,7.23
2018-06-18T20:45:24.063Z,14.60
2018-06-18T20:47:26.193Z,10.17
2018-06-18T20:49:28.282Z,12.70
2018-06-18T20:51:30.532Z,14.10
2018-06-18T20:53:32.609Z,8.23
2018-06-18T20:55:35.450Z,16.70
2018-06-18T20:57:37.560Z,13.87
2018-06-18T20:59:42.894Z,9.00
2018-06-18T21:01:45.776Z,10.90
2018-06-18T21:03:48.117Z,18.07
2018-06-18T21:05:50.201Z,8.10
2018-06-18T21:07:52.299Z,17.43
2018-06-18T21:09:54.368Z,17.03
2018-06-18T21:11:57.810Z,21.57
2018-06-18T21:13:59.913Z,13.23
2018-06-18T21:16:01.988Z,21.50
2018-06-18T21:18:04.400Z,11.83
2018-06-18T21:20:07.070Z,15.10
2018-06-18T21:22:12.285Z,20.03
2018-06-18T21:24:14.380Z,14.30
2018-06-18T21:26:16.466Z,13.50
2018-06-18T21:30:53.910Z,19.23
2018-06-18T21:32:55.977Z,11.03
2018-06-18T21:34:58.028Z,19.37
2018-06-18T21:37:00.141Z,16.60
2018-06-18T21:39:03.083Z,23.07
2018-06-18T21:41:05.160Z,24.67
2018-06-18T21:43:07.228Z,15.43
2018-06-18T21:45:19.675Z,16.27
2018-06-18T21:47:21.738Z,24.07
2018-06-18T21:49:23.785Z,19.30
2018-06-18T21:51:25.846Z,26.17
2018-06-18T21:53:27.930Z,21.93
2018-06-18T21:55:30.003Z,15.70
2018-06-18T21:57:32.093Z,9.60
2018-06-18T21:59:34.348Z,15.97
2018-06-18T22:01:40.010Z,29.20
2018-06-18T22:03:42.129Z,30.07
2018-06-18T22:05:53.094Z,19.97
2018-06-18T22:07:55.354Z,25.67
2018-06-18T22:09:57.487Z,29.50
2018-06-18T22:11:59.628Z,22.83
2018-06-18T22:14:01.804Z,14.57
2018-06-18T22:16:03.977Z,16.83
2018-06-18T22:18:06.094Z,21.77
2018-06-18T22:20:08.175Z,22.83
2018-06-18T22:22:10.232Z,25.20
2018-06-18T22:24:12.253Z,27.33
2018-06-18T22:26:14.322Z,28.03
2018-06-18T22:28:25.705Z,22.73
2018-06-18T22:30:27.770Z,29.93
2018-06-18T22:32:29.872Z,27.27
2018-06-18T22:34:31.894Z,26.90
2018-06-18T22:36:33.952Z,35.63
2018-06-18T22:38:35.976Z,37.90
2018-06-18T22:40:38.041Z,29.83
2018-06-18T22:42:40.090Z,29.83
2018-06-18T22:44:42.137Z,30.10
2018-06-18T22:46:44.215Z,28.40
2018-06-18T22:48:46.271Z,27.97
2018-06-18T22:50:48.326Z,40.43
2018-06-18T22:52:50.497Z,32.60
2018-06-18T22:54:52.575Z,32.43
2018-06-18T22:56:54.669Z,29.53
2018-06-18T22:58:56.751Z,38.90
2018-06-18T23:00:59.512Z,35.40
2018-06-18T23:03:01.579Z,35.88
2018-06-18T23:05:03.638Z,30.63
2018-06-18T23:07:06.104Z,41.57
2018-06-18T23:09:10.004Z,33.80
2018-06-18T23:11:12.199Z,28.90
2018-06-18T23:13:15.608Z,35.27
2018-06-18T23:15:17.659Z,41.23
2018-06-18T23:17:19.766Z,37.13
2018-06-18T23:19:21.858Z,31.40
2018-06-18T23:21:23.903Z,42.50
2018-06-18T23:23:25.976Z,29.17
2018-06-18T23:25:28.013Z,31.53
2018-06-18T23:27:30.066Z,41.40
2018-06-18T23:29:32.139Z,31.97
2018-06-18T23:31:34.187Z,35.87
2018-06-18T23:33:36.249Z,45.63
2018-06-18T23:35:38.314Z,33.93
2018-06-18T23:37:40.382Z,34.93
2018-06-18T23:39:42.469Z,37.83
2018-06-18T23:41:47.001Z,37.23
2018-06-18T23:43:49.357Z,28.73
2018-06-18T23:45:51.412Z,48.17
2018-06-18T23:47:53.485Z,32.97
2018-06-18T23:49:55.548Z,31.20
2018-06-18T23:51:57.598Z,41.83
2018-06-18T23:53:59.658Z,36.20
2018-06-18T23:56:01.728Z,36.33
2018-06-18T23:58:03.818Z,39.43
